createdAt,value
2018-04-14T00:01:15.905Z,22.97
2018-04-14T00:03:43.411Z,24.17
2018-04-14T00:06:10.922Z,23.80
2018-04-14T00:08:38.430Z,22.08
2018-04-14T00:11:05.961Z,23.12
2018-04-14T00:13:33.477Z,21.80
2018-04-14T00:16:01.396Z,24.35
2018-04-14T00:18:28.950Z,22.20
2018-04-14T00:20:56.553Z,21.55
2018-04-14T00:23:24.543Z,22.73
2018-04-14T00:25:52.456Z,21.73
2018-04-14T00:28:19.951Z,21.95
2018-04-14T00:30:47.484Z,20.30
2018-04-14T00:33:14.997Z,19.23
2018-04-14T00:35:42.927Z,21.57
2018-04-14T00:38:10.455Z,20.73
2018-04-14T00:40:37.970Z,20.95
2018-04-14T00:43:05.512Z,19.70
2018-04-14T00:45:33.104Z,22.55
2018-04-14T00:48:00.704Z,21.67
2018-04-14T00:50:28.656Z,21.15
2018-04-14T00:52:56.169Z,19.98
2018-04-14T00:55:23.704Z,19.85
2018-04-14T00:57:51.203Z,20.08
2018-04-14T01:00:18.727Z,19.50
2018-04-14T01:02:46.723Z,20.45
2018-04-14T01:05:14.645Z,19.27
2018-04-14T01:07:42.154Z,21.17
2018-04-14T01:10:09.684Z,20.20
2018-04-14T01:12:37.583Z,21.37
2018-04-14T01:15:05.513Z,21.27
2018-04-14T01:17:33.015Z,20.95
2018-04-14T01:20:00.532Z,22.00
2018-04-14T01:22:28.062Z,18.95
2018-04-14T01:24:55.562Z,18.67
2018-04-14T01:27:23.098Z,20.52
2018-04-14T01:29:51.089Z,20.40
2018-04-14T01:32:19.077Z,19.27
2018-04-14T01:34:46.999Z,18.23
2018-04-14T01:37:14.567Z,18.05
2018-04-14T01:39:42.547Z,19.05
2018-04-14T01:42:10.475Z,18.55
2018-04-14T01:44:37.989Z,19.17
2018-04-14T01:47:05.522Z,20.05
2018-04-14T01:49:33.037Z,21.02
2018-04-14T01:52:00.585Z,23.35
2018-04-14T01:54:28.493Z,22.42
2018-04-14T01:56:56.022Z,22.65
2018-04-14T01:59:23.532Z,20.20
2018-04-14T02:01:51.467Z,17.70
2018-04-14T02:04:18.981Z,18.15
2018-04-14T02:06:46.608Z,18.27
2018-04-14T02:09:14.498Z,19.20
2018-04-14T02:11:42.488Z,18.20
2018-04-14T02:14:10.075Z,19.67
2018-04-14T02:16:38.001Z,18.40
2018-04-14T02:19:05.540Z,21.55
2018-04-14T02:21:33.131Z,23.58
2018-04-14T02:24:00.640Z,23.58
2018-04-14T02:26:28.164Z,23.50
2018-04-14T02:28:55.671Z,22.35
2018-04-14T02:31:23.279Z,23.92
2018-04-14T02:33:51.171Z,21.00
2018-04-14T02:36:19.084Z,20.85
2018-04-14T02:38:46.589Z,20.88
2018-04-14T02:41:14.117Z,21.12
2018-04-14T02:43:41.633Z,21.17
2018-04-14T02:46:09.157Z,21.30
2018-04-14T02:48:36.655Z,22.15
2018-04-14T02:51:04.181Z,18.55
2018-04-14T02:53:31.708Z,20.00
2018-04-14T02:55:59.208Z,19.80
2018-04-14T02:58:26.733Z,17.98
2018-04-14T03:00:54.245Z,18.42
2018-04-14T03:03:21.759Z,16.33
2018-04-14T03:05:49.374Z,18.70
2018-04-14T03:08:17.279Z,17.52
2018-04-14T03:10:44.775Z,18.35
2018-04-14T03:13:12.288Z,18.25
2018-04-14T03:15:39.784Z,17.65
2018-04-14T03:18:07.291Z,18.08
2018-04-14T03:20:35.175Z,18.48
2018-04-14T03:23:02.768Z,17.33
2018-04-14T03:25:30.664Z,16.87
2018-04-14T03:27:58.593Z,16.25
2018-04-14T03:30:26.146Z,16.10
2018-04-14T03:32:54.052Z,14.40
2018-04-14T03:35:21.948Z,15.55
2018-04-14T03:37:49.472Z,13.88
2018-04-14T03:40:16.976Z,14.15
2018-04-14T03:42:44.582Z,13.05
2018-04-14T03:45:12.482Z,14.52
2018-04-14T03:47:40.460Z,14.73
2018-04-14T03:50:07.952Z,13.62
2018-04-14T03:52:35.881Z,11.88
2018-04-14T03:55:03.375Z,12.10
2018-04-14T03:57:30.912Z,13.32
2018-04-14T03:59:58.817Z,12.43
2018-04-14T04:02:26.731Z,13.35
2018-04-14T04:04:54.285Z,11.40
2018-04-14T04:07:22.190Z,11.90
2018-04-14T04:09:50.163Z,11.20
2018-04-14T04:12:17.748Z,11.80
2018-04-14T04:14:45.251Z,11.88
2018-04-14T04:17:13.233Z,11.25
2018-04-14T04:19:53.044Z,11.43
2018-04-14T04:22:32.396Z,10.57
2018-04-14T04:28:05.884Z,10.45
2018-04-14T04:30:33.419Z,9.50
2018-04-14T04:33:00.942Z,10.52
2018-04-14T04:35:28.456Z,10.35
2018-04-14T04:37:55.975Z,10.65
2018-04-14T04:40:23.573Z,9.75
2018-04-14T04:42:51.485Z,10.20
2018-04-14T04:45:19.044Z,11.25
2018-04-14T04:47:47.027Z,10.73
2018-04-14T04:50:14.532Z,10.60
2018-04-14T04:52:42.424Z,9.93
2018-04-14T04:55:10.337Z,12.27
2018-04-14T04:57:37.836Z,11.68
2018-04-14T05:00:05.463Z,11.50
2018-04-14T05:02:32.950Z,11.52
2018-04-14T05:05:00.468Z,10.32
2018-04-14T05:07:28.169Z,11.20
2018-04-14T05:09:55.709Z,11.18
2018-04-14T05:12:23.619Z,10.68
2018-04-14T05:14:51.528Z,10.90
2018-04-14T05:17:19.084Z,11.35
2018-04-14T05:19:47.005Z,12.07
2018-04-14T05:22:14.501Z,11.23
2018-04-14T05:24:42.011Z,10.43
2018-04-14T05:27:09.521Z,10.68
2018-04-14T05:29:37.031Z,10.52
2018-04-14T05:32:04.541Z,11.23
2018-04-14T05:34:32.056Z,11.70
2018-04-14T05:36:59.561Z,12.18
2018-04-14T05:39:27.546Z,10.82
2018-04-14T05:41:55.042Z,12.55
2018-04-14T05:44:22.965Z,11.55
2018-04-14T05:46:50.521Z,11.60
2018-04-14T05:49:18.502Z,11.38
2018-04-14T05:51:46.009Z,11.45
2018-04-14T05:54:13.531Z,10.93
2018-04-14T05:56:41.040Z,10.25
2018-04-14T05:59:08.565Z,11.30
2018-04-14T06:01:36.062Z,10.82
2018-04-14T06:04:03.583Z,9.27
2018-04-14T06:06:31.075Z,8.18
2018-04-14T06:08:58.687Z,8.43
2018-04-14T06:11:26.594Z,8.10
2018-04-14T06:13:54.148Z,7.70
2018-04-14T06:16:21.643Z,7.95
2018-04-14T06:18:49.561Z,7.37
2018-04-14T06:21:17.054Z,7.82
2018-04-14T06:23:44.561Z,7.75
2018-04-14T06:26:12.123Z,7.32
2018-04-14T06:28:39.687Z,7.20
2018-04-14T06:31:07.204Z,7.47
2018-04-14T06:33:34.713Z,8.30
2018-04-14T06:36:02.241Z,7.30
2018-04-14T06:38:29.815Z,8.00
2018-04-14T06:40:57.379Z,7.80
2018-04-14T06:43:24.876Z,7.57
2018-04-14T06:45:52.873Z,6.70
2018-04-14T06:48:20.760Z,8.07
2018-04-14T06:50:48.743Z,7.50
2018-04-14T06:53:16.252Z,7.27
2018-04-14T06:55:44.155Z,7.87
2018-04-14T06:58:11.661Z,9.13
2018-04-14T07:00:39.196Z,8.50
2018-04-14T07:03:07.079Z,8.50
2018-04-14T07:05:34.584Z,9.20
2018-04-14T07:08:02.483Z,8.17
2018-04-14T07:10:29.995Z,10.60
2018-04-14T07:12:57.540Z,9.83
2018-04-14T07:15:25.462Z,9.70
2018-04-14T07:17:52.967Z,10.67
2018-04-14T07:20:20.479Z,11.00
2018-04-14T07:22:47.990Z,13.03
2018-04-14T07:25:15.903Z,14.03
2018-04-14T07:27:43.452Z,16.80
2018-04-14T07:30:11.006Z,18.07
2018-04-14T07:32:38.508Z,19.47
2018-04-14T07:35:06.104Z,19.57
2018-04-14T07:37:34.048Z,23.57
2018-04-14T07:40:01.931Z,20.10
2018-04-14T07:42:29.443Z,17.83
2018-04-14T07:44:56.996Z,22.17
2018-04-14T07:47:24.479Z,19.97
2018-04-14T07:49:51.975Z,19.27
2018-04-14T07:52:19.496Z,20.90
2018-04-14T07:54:46.996Z,26.97
2018-04-14T07:57:14.918Z,27.30
2018-04-14T07:59:42.423Z,26.43
2018-04-14T08:02:10.061Z,28.30
2018-04-14T08:04:37.965Z,28.70
2018-04-14T08:07:05.496Z,27.73
2018-04-14T08:09:33.004Z,29.00
2018-04-14T08:12:00.528Z,29.50
2018-04-14T08:14:28.037Z,25.67
2018-04-14T08:16:55.554Z,24.57
2018-04-14T08:19:23.157Z,26.30
2018-04-14T08:21:51.171Z,26.70
2018-04-14T08:24:18.760Z,27.30
2018-04-14T08:26:46.285Z,27.77
2018-04-14T08:29:13.791Z,27.97
2018-04-14T08:31:41.317Z,27.73
2018-04-14T08:34:08.830Z,26.90
2018-04-14T08:36:36.358Z,29.10
2018-04-14T08:39:04.256Z,31.97
2018-04-14T08:41:32.170Z,33.07
2018-04-14T08:43:59.677Z,31.87
2018-04-14T08:46:27.192Z,31.03
2018-04-14T08:48:54.808Z,30.13
2018-04-14T08:51:22.376Z,30.20
2018-04-14T08:53:50.289Z,28.10
2018-04-14T08:56:17.823Z,26.70
2018-04-14T08:58:45.318Z,31.17
2018-04-14T09:01:12.846Z,33.57
2018-04-14T09:03:40.352Z,34.33
2018-04-14T09:06:07.859Z,30.03
2018-04-14T09:08:35.475Z,31.70
2018-04-14T09:11:03.388Z,29.70
2018-04-14T09:13:30.992Z,31.30
2018-04-14T09:15:58.483Z,30.67
2018-04-14T09:18:25.987Z,34.73
2018-04-14T09:20:53.503Z,33.63
2018-04-14T09:23:21.498Z,31.50
2018-04-14T09:25:49.493Z,30.93
2018-04-14T09:28:17.493Z,32.63
2018-04-14T09:30:45.072Z,32.50
2018-04-14T09:33:12.993Z,30.43
2018-04-14T09:35:40.549Z,29.30
2018-04-14T09:38:08.459Z,28.23
2018-04-14T09:40:36.352Z,28.20
2018-04-14T09:43:04.329Z,27.60
2018-04-14T09:45:32.223Z,27.37
2018-04-14T09:48:00.155Z,26.17
2018-04-14T09:50:27.697Z,26.67
2018-04-14T09:52:55.696Z,26.07
2018-04-14T09:55:23.587Z,26.97
2018-04-14T09:57:51.495Z,23.93
2018-04-14T10:00:24.658Z,26.67
2018-04-14T10:02:52.164Z,24.93
2018-04-14T10:05:19.670Z,24.23
2018-04-14T10:07:47.593Z,24.63
2018-04-14T10:10:15.088Z,24.13
2018-04-14T10:12:42.604Z,23.43
2018-04-14T10:15:10.111Z,24.20
2018-04-14T10:17:38.091Z,23.57
2018-04-14T10:20:05.992Z,23.17
2018-04-14T10:22:33.908Z,23.60
2018-04-14T10:25:01.422Z,25.20
2018-04-14T10:27:28.942Z,24.37
2018-04-14T10:29:56.451Z,22.83
2018-04-14T10:32:24.024Z,24.90
2018-04-14T10:34:51.488Z,25.43
2018-04-14T10:37:19.017Z,26.40
2018-04-14T10:39:46.561Z,25.37
2018-04-14T10:42:14.154Z,24.40
2018-04-14T10:44:42.047Z,24.30
2018-04-14T10:47:09.553Z,25.60
2018-04-14T10:49:37.111Z,26.20
2018-04-14T10:52:04.995Z,25.90
2018-04-14T10:54:32.600Z,27.57
2018-04-14T10:57:00.502Z,27.47
2018-04-14T10:59:28.412Z,29.10
2018-04-14T11:01:55.920Z,27.70
2018-04-14T11:04:23.457Z,25.00
2018-04-14T11:06:51.344Z,26.40
2018-04-14T11:09:19.288Z,24.50
2018-04-14T11:11:46.816Z,24.77
2018-04-14T11:14:14.729Z,24.10
2018-04-14T11:16:42.223Z,25.03
2018-04-14T11:19:09.737Z,23.93
2018-04-14T11:21:37.267Z,23.50
2018-04-14T11:24:05.188Z,22.73
2018-04-14T11:26:32.679Z,22.10
2018-04-14T11:29:00.197Z,20.20
2018-04-14T11:31:27.695Z,22.20
2018-04-14T11:33:55.224Z,21.93
2018-04-14T11:36:22.729Z,22.17
2018-04-14T11:38:50.253Z,20.00
2018-04-14T11:41:18.154Z,21.17
2018-04-14T11:43:46.073Z,25.47
2018-04-14T11:46:13.572Z,25.27
2018-04-14T11:48:41.118Z,26.87
2018-04-14T11:51:09.117Z,23.93
2018-04-14T11:53:37.018Z,26.53
2018-04-14T11:56:04.523Z,24.67
2018-04-14T11:58:32.065Z,24.93
2018-04-14T12:00:59.966Z,25.43
2018-04-14T12:03:27.879Z,27.60
2018-04-14T12:05:55.385Z,21.10
2018-04-14T12:08:22.999Z,20.20
2018-04-14T12:10:50.500Z,21.37
2018-04-14T12:13:18.408Z,24.13
2018-04-14T12:15:45.941Z,25.83
2018-04-14T12:18:13.435Z,23.93
2018-04-14T12:20:40.939Z,20.10
2018-04-14T12:23:08.518Z,19.33
2018-04-14T12:25:36.101Z,18.83
2018-04-14T12:28:03.613Z,19.87
2018-04-14T12:30:31.593Z,20.03
2018-04-14T12:32:59.491Z,15.37
2018-04-14T12:35:27.399Z,18.67
2018-04-14T12:37:59.388Z,22.20
2018-04-14T12:40:27.286Z,20.80
2018-04-14T12:42:54.801Z,26.00
2018-04-14T12:45:22.320Z,29.17
2018-04-14T12:47:50.250Z,28.13
2018-04-14T12:50:17.791Z,28.60
2018-04-14T12:52:45.396Z,29.10
2018-04-14T12:55:13.295Z,28.20
2018-04-14T12:57:41.193Z,26.43
2018-04-14T13:00:08.861Z,23.67
2018-04-14T13:02:36.748Z,25.97
2018-04-14T13:05:04.263Z,25.93
2018-04-14T13:07:31.765Z,24.17
2018-04-14T13:09:59.284Z,23.40
2018-04-14T13:12:26.889Z,23.60
2018-04-14T13:14:54.819Z,23.93
2018-04-14T13:17:22.355Z,25.10
2018-04-14T13:19:49.877Z,24.40
2018-04-14T13:22:17.380Z,27.43
2018-04-14T13:24:44.937Z,25.20
2018-04-14T13:27:12.903Z,28.67
2018-04-14T13:29:40.422Z,29.30
2018-04-14T13:32:07.930Z,33.10
2018-04-14T13:34:35.468Z,29.10
2018-04-14T13:37:03.052Z,22.57
2018-04-14T13:39:30.969Z,19.23
2018-04-14T13:41:58.479Z,21.33
2018-04-14T13:44:25.978Z,21.90
2018-04-14T13:46:53.483Z,22.20
2018-04-14T13:49:20.987Z,22.60
2018-04-14T13:51:48.956Z,25.37
2018-04-14T13:54:16.539Z,25.30
2018-04-14T13:56:44.043Z,26.10
2018-04-14T13:59:11.932Z,30.10
2018-04-14T14:01:39.915Z,29.17
2018-04-14T14:04:07.406Z,27.07
2018-04-14T14:06:35.395Z,25.77
2018-04-14T14:09:02.918Z,22.40
2018-04-14T14:11:30.423Z,22.37
2018-04-14T14:13:57.925Z,25.20
2018-04-14T14:16:25.435Z,23.77
2018-04-14T14:18:53.323Z,25.07
2018-04-14T14:21:21.334Z,24.10
2018-04-14T14:23:49.233Z,29.43
2018-04-14T14:26:16.784Z,31.87
2018-04-14T14:28:44.292Z,31.17
2018-04-14T14:31:12.201Z,30.57
2018-04-14T14:33:39.716Z,32.97
2018-04-14T14:36:07.238Z,28.40
2018-04-14T14:38:34.745Z,29.10
2018-04-14T14:41:02.304Z,29.93
2018-04-14T14:43:29.795Z,26.50
2018-04-14T14:45:57.717Z,27.00
2018-04-14T14:48:25.222Z,27.03
2018-04-14T14:50:52.748Z,26.97
2018-04-14T14:53:20.240Z,29.37
2018-04-14T14:55:48.167Z,30.90
2018-04-14T14:58:15.655Z,31.77
2018-04-14T15:00:43.183Z,30.27
2018-04-14T15:03:10.678Z,30.90
2018-04-14T15:05:38.191Z,30.73
2018-04-14T15:08:05.739Z,30.27
2018-04-14T15:10:33.227Z,29.50
2018-04-14T15:13:00.739Z,29.70
2018-04-14T15:15:28.300Z,29.40
2018-04-14T15:17:56.219Z,28.97
2018-04-14T15:20:23.771Z,28.97
2018-04-14T15:22:51.288Z,29.83
2018-04-14T15:25:18.888Z,30.10
2018-04-14T15:27:46.384Z,30.13
2018-04-14T15:30:13.892Z,28.80
2018-04-14T15:32:41.407Z,28.30
2018-04-14T15:35:09.298Z,29.33
2018-04-14T15:37:37.213Z,25.23
2018-04-14T15:40:04.721Z,23.77
2018-04-14T15:42:32.240Z,20.87
2018-04-14T15:45:00.151Z,22.20
2018-04-14T15:47:28.059Z,22.93
2018-04-14T15:49:55.621Z,21.70
2018-04-14T15:52:23.538Z,22.90
2018-04-14T15:54:51.053Z,22.10
2018-04-14T15:57:18.568Z,23.20
2018-04-14T15:59:46.073Z,21.90
2018-04-14T16:02:14.053Z,21.03
2018-04-14T16:04:41.943Z,20.97
2018-04-14T16:07:10.041Z,21.00
2018-04-14T16:09:37.944Z,21.73
2018-04-14T16:12:05.489Z,20.80
2018-04-14T16:14:32.987Z,21.23
2018-04-14T16:17:00.606Z,19.93
2018-04-14T16:19:28.503Z,20.47
2018-04-14T16:21:56.015Z,20.63
2018-04-14T16:24:23.521Z,19.60
2018-04-14T16:26:51.039Z,19.80
2018-04-14T16:29:18.943Z,18.10
2018-04-14T16:31:46.499Z,18.83
2018-04-14T16:34:14.008Z,18.10
2018-04-14T16:36:41.990Z,18.33
2018-04-14T16:39:09.892Z,19.40
2018-04-14T16:41:37.802Z,18.03
2018-04-14T16:44:05.370Z,20.20
2018-04-14T16:46:33.266Z,19.40
2018-04-14T16:49:01.251Z,17.87
2018-04-14T16:51:29.144Z,18.60
2018-04-14T16:53:56.719Z,17.70
2018-04-14T16:56:24.207Z,17.27
2018-04-14T16:58:52.192Z,17.77
2018-04-14T17:01:19.679Z,18.40
2018-04-14T17:03:47.192Z,19.00
2018-04-14T17:06:14.754Z,17.40
2018-04-14T17:08:42.673Z,16.20
2018-04-14T17:11:10.181Z,17.07
2018-04-14T17:13:37.704Z,18.40
2018-04-14T17:16:05.211Z,16.20
2018-04-14T17:18:33.184Z,16.77
2018-04-14T17:21:00.777Z,14.90
2018-04-14T17:23:28.777Z,16.43
2018-04-14T17:25:56.354Z,17.17
2018-04-14T17:28:24.349Z,16.50
2018-04-14T17:30:52.243Z,16.10
2018-04-14T17:33:20.131Z,15.57
2018-04-14T17:35:47.644Z,15.10
2018-04-14T17:38:15.197Z,16.47
2018-04-14T17:40:43.104Z,16.63
2018-04-14T17:43:11.005Z,16.67
2018-04-14T17:45:38.515Z,17.97
2018-04-14T17:48:06.026Z,17.13
2018-04-14T17:50:33.663Z,17.53
2018-04-14T17:53:01.627Z,20.80
2018-04-14T17:55:29.161Z,21.60
2018-04-14T17:57:56.709Z,19.43
2018-04-14T18:00:24.655Z,18.83
2018-04-14T18:02:52.158Z,17.67
2018-04-14T18:05:19.772Z,16.23
2018-04-14T18:07:47.751Z,17.23
2018-04-14T18:10:15.263Z,15.87
2018-04-14T18:12:42.765Z,16.57
2018-04-14T18:15:10.307Z,15.73
2018-04-14T18:17:38.203Z,16.80
2018-04-14T18:20:06.205Z,15.93
2018-04-14T18:22:34.129Z,15.90
2018-04-14T18:25:01.677Z,18.27
2018-04-14T18:27:29.599Z,17.90
2018-04-14T18:29:57.166Z,16.80
2018-04-14T18:32:25.085Z,18.77
2018-04-14T18:34:52.597Z,17.63
2018-04-14T18:37:20.123Z,19.00
2018-04-14T18:39:48.099Z,17.10
2018-04-14T18:42:15.632Z,17.43
2018-04-14T18:44:43.145Z,18.13
2018-04-14T18:47:10.677Z,18.63
2018-04-14T18:49:38.252Z,16.47
2018-04-14T18:52:06.241Z,17.00
2018-04-14T18:54:34.140Z,16.43
2018-04-14T18:57:02.198Z,15.97
2018-04-14T18:59:29.706Z,16.20
2018-04-14T19:01:57.826Z,17.37
2018-04-14T19:04:25.366Z,16.83
2018-04-14T19:06:52.884Z,15.47
2018-04-14T19:09:20.775Z,15.60
2018-04-14T19:11:48.774Z,18.27
2018-04-14T19:14:16.767Z,17.17
2018-04-14T19:16:44.748Z,16.47
2018-04-14T19:19:12.350Z,17.50
2018-04-14T19:21:40.269Z,18.03
2018-04-14T19:24:07.778Z,18.43
2018-04-14T19:26:35.309Z,17.77
2018-04-14T19:29:03.214Z,19.77
2018-04-14T19:31:30.731Z,19.40
2018-04-14T19:33:58.260Z,19.30
2018-04-14T19:36:26.188Z,18.80
2018-04-14T19:38:53.696Z,18.33
2018-04-14T19:41:21.324Z,19.57
2018-04-14T19:43:49.234Z,18.47
2018-04-14T19:46:16.800Z,19.90
2018-04-14T19:48:44.806Z,19.90
2018-04-14T19:51:12.789Z,17.80
2018-04-14T19:53:40.791Z,19.40
2018-04-14T19:56:08.696Z,19.17
2018-04-14T19:58:36.607Z,18.20
2018-04-14T20:01:04.104Z,19.53
2018-04-14T20:03:31.627Z,18.13
2018-04-14T20:05:59.233Z,18.60
2018-04-14T20:08:27.152Z,19.00
2018-04-14T20:10:54.711Z,19.17
2018-04-14T20:13:22.672Z,17.60
2018-04-14T20:15:50.200Z,19.30
2018-04-14T20:18:17.736Z,18.33
2018-04-14T20:20:45.249Z,17.90
2018-04-14T20:23:13.167Z,18.27
2018-04-14T20:25:40.729Z,17.77
2018-04-14T20:28:08.720Z,19.37
2018-04-14T20:30:36.717Z,17.77
2018-04-14T20:33:04.631Z,19.50
2018-04-14T20:35:32.188Z,25.83
2018-04-14T20:37:59.771Z,20.93
2018-04-14T20:40:27.370Z,20.10
2018-04-14T20:42:55.283Z,19.43
2018-04-14T20:45:22.831Z,18.93
2018-04-14T20:47:50.414Z,24.33
2018-04-14T20:50:17.999Z,20.70
2018-04-14T20:52:45.590Z,20.40
2018-04-14T20:55:13.042Z,19.77
2018-04-14T20:57:40.655Z,18.90
2018-04-14T21:00:08.576Z,18.30
2018-04-14T21:02:36.093Z,19.93
2018-04-14T21:05:03.605Z,20.23
2018-04-14T21:07:31.128Z,19.10
2018-04-14T21:09:58.690Z,20.17
2018-04-14T21:12:26.583Z,19.10
2018-04-14T21:14:54.158Z,19.13
2018-04-14T21:17:21.665Z,18.63
2018-04-14T21:19:49.571Z,20.63
2018-04-14T21:22:17.077Z,20.07
2018-04-14T21:24:44.707Z,18.03
2018-04-14T21:27:12.288Z,18.93
2018-04-14T21:29:39.805Z,19.80
2018-04-14T21:32:07.313Z,18.00
2018-04-14T21:34:34.847Z,18.30
2018-04-14T21:37:02.354Z,18.30
2018-04-14T21:39:29.915Z,19.03
2018-04-14T21:41:57.426Z,18.53
2018-04-14T21:44:24.973Z,19.37
2018-04-14T21:46:52.477Z,18.60
2018-04-14T21:49:20.456Z,18.10
2018-04-14T21:51:47.978Z,17.40
2018-04-14T21:54:15.517Z,18.77
2018-04-14T21:56:43.034Z,18.43
2018-04-14T21:59:10.555Z,18.00
2018-04-14T22:01:38.052Z,17.47
2018-04-14T22:04:05.581Z,16.80
2018-04-14T22:06:33.484Z,16.77
2018-04-14T22:09:00.994Z,16.17
2018-04-14T22:11:28.519Z,15.30
2018-04-14T22:13:56.033Z,15.43
2018-04-14T22:16:23.543Z,14.27
2018-04-14T22:18:51.054Z,15.33
2018-04-14T22:21:18.585Z,14.53
2018-04-14T22:23:46.087Z,14.20
2018-04-14T22:26:13.613Z,14.40
2018-04-14T22:28:41.111Z,14.33
2018-04-14T22:31:09.037Z,15.20
2018-04-14T22:33:36.542Z,14.00
2018-04-14T22:36:04.059Z,14.30
2018-04-14T22:38:31.572Z,13.13
2018-04-14T22:40:59.463Z,13.07
2018-04-14T22:43:27.389Z,13.17
2018-04-14T22:45:54.896Z,14.37
2018-04-14T22:48:22.412Z,13.43
2018-04-14T22:50:49.916Z,14.43
2018-04-14T22:53:17.739Z,13.67
2018-04-14T22:55:45.245Z,14.80
2018-04-14T22:58:12.857Z,15.03
2018-04-14T23:00:40.846Z,15.33
2018-04-14T23:03:08.764Z,15.40
2018-04-14T23:05:36.274Z,15.10
2018-04-14T23:08:03.801Z,16.93
2018-04-14T23:10:31.396Z,17.20
2018-04-14T23:12:59.337Z,16.17
2018-04-14T23:15:26.854Z,17.83
2018-04-14T23:17:54.386Z,16.80
2018-04-14T23:20:21.935Z,20.37
2018-04-14T23:22:49.845Z,19.57
2018-04-14T23:25:17.359Z,24.03
2018-04-14T23:27:44.885Z,30.27
2018-04-14T23:30:12.481Z,33.20
2018-04-14T23:32:40.401Z,35.70
2018-04-14T23:35:07.953Z,36.17
2018-04-14T23:37:35.880Z,37.50
2018-04-14T23:40:03.389Z,38.00
2018-04-14T23:42:30.908Z,39.03
2018-04-14T23:44:58.403Z,38.80
2018-04-14T23:47:26.326Z,37.40
2018-04-14T23:49:53.833Z,37.73
2018-04-14T23:52:21.350Z,36.73
2018-04-14T23:54:48.842Z,36.47
2018-04-14T23:57:16.837Z,36.57
2018-04-14T23:59:44.726Z,35.10
